sensor_id;sensor_type;location;lat;lon;timestamp;temperature;humidity
62573;DHT22;48626;51.678;5.806;2023-04-06T00:01:51;4.00;99.90
62573;DHT22;48626;51.678;5.806;2023-04-06T00:04:17;3.90;99.90
62573;DHT22;48626;51.678;5.806;2023-04-06T00:06:42;3.90;99.90
62573;DHT22;48626;51.678;5.806;2023-04-06T00:09:08;3.90;99.90
62573;DHT22;48626;51.678;5.806;2023-04-06T00:11:34;3.90;99.90
62573;DHT22;48626;51.678;5.806;2023-04-06T00:13:59;3.90;99.90
62573;DHT22;48626;51.678;5.806;2023-04-06T00:16:25;3.80;99.90
62573;DHT22;48626;51.678;5.806;2023-04-06T00:18:51;3.80;99.90
62573;DHT22;48626;51.678;5.806;2023-04-06T00:21:17;3.70;99.90
62573;DHT22;48626;51.678;5.806;2023-04-06T00:23:43;3.70;99.90
62573;DHT22;48626;51.678;5.806;2023-04-06T00:26:09;3.70;99.90
62573;DHT22;48626;51.678;5.806;2023-04-06T00:28:37;3.70;99.90
62573;DHT22;48626;51.678;5.806;2023-04-06T00:31:02;3.60;99.90
62573;DHT22;48626;51.678;5.806;2023-04-06T00:33:28;3.60;99.90
62573;DHT22;48626;51.678;5.806;2023-04-06T00:35:54;3.60;99.90
62573;DHT22;48626;51.678;5.806;2023-04-06T00:38:19;3.60;99.90
62573;DHT22;48626;51.678;5.806;2023-04-06T00:40:46;3.50;99.90
62573;DHT22;48626;51.678;5.806;2023-04-06T00:43:12;3.50;99.90
62573;DHT22;48626;51.678;5.806;2023-04-06T00:45:39;3.50;99.90
62573;DHT22;48626;51.678;5.806;2023-04-06T00:48:06;3.50;99.90
62573;DHT22;48626;51.678;5.806;2023-04-06T00:50:32;3.50;99.90
62573;DHT22;48626;51.678;5.806;2023-04-06T00:53:01;3.40;99.90
62573;DHT22;48626;51.678;5.806;2023-04-06T00:55:27;3.40;99.90
62573;DHT22;48626;51.678;5.806;2023-04-06T00:57:53;3.40;99.90
62573;DHT22;48626;51.678;5.806;2023-04-06T01:00:20;3.40;99.90
62573;DHT22;48626;51.678;5.806;2023-04-06T01:02:46;3.30;99.90
62573;DHT22;48626;51.678;5.806;2023-04-06T01:05:13;3.30;99.90
62573;DHT22;48626;51.678;5.806;2023-04-06T01:07:39;3.30;99.90
62573;DHT22;48626;51.678;5.806;2023-04-06T01:10:05;3.30;99.90
62573;DHT22;48626;51.678;5.806;2023-04-06T01:12:30;3.30;99.90
62573;DHT22;48626;51.678;5.806;2023-04-06T01:14:56;3.20;99.90
62573;DHT22;48626;51.678;5.806;2023-04-06T01:17:22;3.20;99.90
62573;DHT22;48626;51.678;5.806;2023-04-06T01:19:48;3.10;99.90
62573;DHT22;48626;51.678;5.806;2023-04-06T01:22:19;3.10;99.90
62573;DHT22;48626;51.678;5.806;2023-04-06T01:24:45;3.10;99.90
62573;DHT22;48626;51.678;5.806;2023-04-06T01:27:12;3.10;99.90
62573;DHT22;48626;51.678;5.806;2023-04-06T01:29:38;3.10;99.90
62573;DHT22;48626;51.678;5.806;2023-04-06T01:32:07;3.10;99.90
62573;DHT22;48626;51.678;5.806;2023-04-06T01:34:33;3.00;99.90
62573;DHT22;48626;51.678;5.806;2023-04-06T01:36:59;3.00;99.90
62573;DHT22;48626;51.678;5.806;2023-04-06T01:39:25;3.00;99.90
62573;DHT22;48626;51.678;5.806;2023-04-06T01:41:50;3.00;99.90
62573;DHT22;48626;51.678;5.806;2023-04-06T01:44:17;2.90;99.90
62573;DHT22;48626;51.678;5.806;2023-04-06T01:46:44;2.90;99.90
62573;DHT22;48626;51.678;5.806;2023-04-06T01:49:12;2.90;99.90
62573;DHT22;48626;51.678;5.806;2023-04-06T01:51:38;2.90;99.90
62573;DHT22;48626;51.678;5.806;2023-04-06T01:54:04;2.80;99.90
62573;DHT22;48626;51.678;5.806;2023-04-06T01:56:29;2.80;99.90
62573;DHT22;48626;51.678;5.806;2023-04-06T01:58:55;2.80;99.90
62573;DHT22;48626;51.678;5.806;2023-04-06T02:01:21;2.80;99.90
62573;DHT22;48626;51.678;5.806;2023-04-06T02:03:47;2.80;99.90
62573;DHT22;48626;51.678;5.806;2023-04-06T02:06:13;2.80;99.90
62573;DHT22;48626;51.678;5.806;2023-04-06T02:08:38;2.80;99.90
62573;DHT22;48626;51.678;5.806;2023-04-06T02:11:04;2.80;99.90
62573;DHT22;48626;51.678;5.806;2023-04-06T02:13:30;2.80;99.90
62573;DHT22;48626;51.678;5.806;2023-04-06T02:15:56;2.80;99.90
62573;DHT22;48626;51.678;5.806;2023-04-06T02:18:22;2.80;99.90
62573;DHT22;48626;51.678;5.806;2023-04-06T02:20:48;2.80;99.90
62573;DHT22;48626;51.678;5.806;2023-04-06T02:23:14;2.80;99.90
62573;DHT22;48626;51.678;5.806;2023-04-06T02:25:40;2.80;99.90
62573;DHT22;48626;51.678;5.806;2023-04-06T02:28:06;2.80;99.90
62573;DHT22;48626;51.678;5.806;2023-04-06T02:30:31;2.90;99.90
62573;DHT22;48626;51.678;5.806;2023-04-06T02:33:01;2.90;99.90
62573;DHT22;48626;51.678;5.806;2023-04-06T02:35:30;3.00;99.90
62573;DHT22;48626;51.678;5.806;2023-04-06T02:37:57;3.00;99.90
62573;DHT22;48626;51.678;5.806;2023-04-06T02:40:22;3.00;99.90
62573;DHT22;48626;51.678;5.806;2023-04-06T02:42:48;3.00;99.90
62573;DHT22;48626;51.678;5.806;2023-04-06T02:45:14;3.10;99.90
62573;DHT22;48626;51.678;5.806;2023-04-06T02:47:39;3.20;99.90
62573;DHT22;48626;51.678;5.806;2023-04-06T02:50:05;3.20;99.90
62573;DHT22;48626;51.678;5.806;2023-04-06T02:52:31;3.30;99.90
62573;DHT22;48626;51.678;5.806;2023-04-06T02:54:57;3.30;99.90
62573;DHT22;48626;51.678;5.806;2023-04-06T02:57:23;3.40;99.90
62573;DHT22;48626;51.678;5.806;2023-04-06T02:59:48;3.40;99.90
62573;DHT22;48626;51.678;5.806;2023-04-06T03:02:14;3.50;99.90
62573;DHT22;48626;51.678;5.806;2023-04-06T03:04:41;3.50;99.90
62573;DHT22;48626;51.678;5.806;2023-04-06T03:07:07;3.50;99.90
62573;DHT22;48626;51.678;5.806;2023-04-06T03:09:32;3.50;99.90
62573;DHT22;48626;51.678;5.806;2023-04-06T03:11:58;3.60;99.90
62573;DHT22;48626;51.678;5.806;2023-04-06T03:14:24;3.60;99.90
62573;DHT22;48626;51.678;5.806;2023-04-06T03:16:49;3.60;99.90
62573;DHT22;48626;51.678;5.806;2023-04-06T03:19:15;3.70;99.90
62573;DHT22;48626;51.678;5.806;2023-04-06T03:21:41;3.70;99.90
62573;DHT22;48626;51.678;5.806;2023-04-06T03:24:07;3.70;99.90
62573;DHT22;48626;51.678;5.806;2023-04-06T03:26:33;3.70;99.90
62573;DHT22;48626;51.678;5.806;2023-04-06T03:28:59;3.70;99.90
62573;DHT22;48626;51.678;5.806;2023-04-06T03:31:26;3.70;99.90
62573;DHT22;48626;51.678;5.806;2023-04-06T03:33:52;3.70;99.90
62573;DHT22;48626;51.678;5.806;2023-04-06T03:36:18;3.80;99.90
62573;DHT22;48626;51.678;5.806;2023-04-06T03:38:43;3.80;99.90
62573;DHT22;48626;51.678;5.806;2023-04-06T03:41:09;3.80;99.90
62573;DHT22;48626;51.678;5.806;2023-04-06T03:43:35;3.80;99.90
62573;DHT22;48626;51.678;5.806;2023-04-06T03:46:01;3.90;99.90
62573;DHT22;48626;51.678;5.806;2023-04-06T03:48:26;3.80;99.90
62573;DHT22;48626;51.678;5.806;2023-04-06T03:50:52;3.90;99.90
62573;DHT22;48626;51.678;5.806;2023-04-06T03:53:18;3.90;99.90
62573;DHT22;48626;51.678;5.806;2023-04-06T03:55:43;3.90;99.90
62573;DHT22;48626;51.678;5.806;2023-04-06T03:58:09;3.90;99.90
62573;DHT22;48626;51.678;5.806;2023-04-06T04:00:35;3.90;99.90
62573;DHT22;48626;51.678;5.806;2023-04-06T04:03:01;3.90;99.90
62573;DHT22;48626;51.678;5.806;2023-04-06T04:05:28;3.90;99.90
62573;DHT22;48626;51.678;5.806;2023-04-06T04:07:54;3.90;99.90
62573;DHT22;48626;51.678;5.806;2023-04-06T04:10:20;3.90;99.90
62573;DHT22;48626;51.678;5.806;2023-04-06T04:12:46;3.90;99.90
62573;DHT22;48626;51.678;5.806;2023-04-06T04:15:12;4.00;99.90
62573;DHT22;48626;51.678;5.806;2023-04-06T04:17:37;3.90;99.90
62573;DHT22;48626;51.678;5.806;2023-04-06T04:20:04;3.90;99.90
62573;DHT22;48626;51.678;5.806;2023-04-06T04:22:29;3.90;99.90
62573;DHT22;48626;51.678;5.806;2023-04-06T04:24:56;3.90;99.90
62573;DHT22;48626;51.678;5.806;2023-04-06T04:27:21;3.90;99.90
62573;DHT22;48626;51.678;5.806;2023-04-06T04:29:47;3.90;99.90
62573;DHT22;48626;51.678;5.806;2023-04-06T04:32:13;3.90;99.90
62573;DHT22;48626;51.678;5.806;2023-04-06T04:34:39;3.90;99.90
62573;DHT22;48626;51.678;5.806;2023-04-06T04:37:08;3.90;99.90
62573;DHT22;48626;51.678;5.806;2023-04-06T04:39:33;3.90;99.90
62573;DHT22;48626;51.678;5.806;2023-04-06T04:41:59;3.90;99.90
62573;DHT22;48626;51.678;5.806;2023-04-06T04:44:25;3.90;99.90
62573;DHT22;48626;51.678;5.806;2023-04-06T04:46:51;3.90;99.90
62573;DHT22;48626;51.678;5.806;2023-04-06T04:49:18;4.00;99.90
62573;DHT22;48626;51.678;5.806;2023-04-06T04:51:43;4.00;99.90
62573;DHT22;48626;51.678;5.806;2023-04-06T04:54:09;4.00;99.90
62573;DHT22;48626;51.678;5.806;2023-04-06T04:56:35;4.00;99.90
62573;DHT22;48626;51.678;5.806;2023-04-06T04:59:01;4.00;99.90
62573;DHT22;48626;51.678;5.806;2023-04-06T05:01:27;4.00;99.90
62573;DHT22;48626;51.678;5.806;2023-04-06T05:03:53;4.00;99.90
62573;DHT22;48626;51.678;5.806;2023-04-06T05:06:19;4.00;99.90
62573;DHT22;48626;51.678;5.806;2023-04-06T05:08:46;4.00;99.90
62573;DHT22;48626;51.678;5.806;2023-04-06T05:11:11;4.00;99.90
62573;DHT22;48626;51.678;5.806;2023-04-06T05:13:38;4.00;99.90
62573;DHT22;48626;51.678;5.806;2023-04-06T05:16:04;4.00;99.90
62573;DHT22;48626;51.678;5.806;2023-04-06T05:18:30;4.00;99.90
62573;DHT22;48626;51.678;5.806;2023-04-06T05:20:55;4.00;99.90
62573;DHT22;48626;51.678;5.806;2023-04-06T05:23:22;4.00;99.90
62573;DHT22;48626;51.678;5.806;2023-04-06T05:25:48;4.00;99.90
62573;DHT22;48626;51.678;5.806;2023-04-06T05:28:14;4.00;99.90
62573;DHT22;48626;51.678;5.806;2023-04-06T05:30:42;4.00;99.90
62573;DHT22;48626;51.678;5.806;2023-04-06T05:33:09;4.10;99.90
62573;DHT22;48626;51.678;5.806;2023-04-06T05:35:35;4.10;99.90
62573;DHT22;48626;51.678;5.806;2023-04-06T05:38:01;4.20;99.90
62573;DHT22;48626;51.678;5.806;2023-04-06T05:40:27;4.20;99.90
62573;DHT22;48626;51.678;5.806;2023-04-06T05:42:53;4.30;99.90
62573;DHT22;48626;51.678;5.806;2023-04-06T05:45:19;4.30;99.90
62573;DHT22;48626;51.678;5.806;2023-04-06T05:47:46;4.30;99.90
62573;DHT22;48626;51.678;5.806;2023-04-06T05:50:16;4.30;99.90
62573;DHT22;48626;51.678;5.806;2023-04-06T05:52:42;4.40;99.90
62573;DHT22;48626;51.678;5.806;2023-04-06T05:55:09;4.40;99.90
62573;DHT22;48626;51.678;5.806;2023-04-06T05:57:36;4.40;99.90
62573;DHT22;48626;51.678;5.806;2023-04-06T06:00:03;4.50;99.90
62573;DHT22;48626;51.678;5.806;2023-04-06T06:02:33;4.60;99.90
62573;DHT22;48626;51.678;5.806;2023-04-06T06:04:59;4.70;99.90
62573;DHT22;48626;51.678;5.806;2023-04-06T06:07:25;4.80;99.90
62573;DHT22;48626;51.678;5.806;2023-04-06T06:09:51;4.90;99.90
62573;DHT22;48626;51.678;5.806;2023-04-06T06:12:16;5.10;99.90
62573;DHT22;48626;51.678;5.806;2023-04-06T06:14:42;5.20;99.90
62573;DHT22;48626;51.678;5.806;2023-04-06T06:17:08;5.50;99.90
62573;DHT22;48626;51.678;5.806;2023-04-06T06:19:34;5.60;99.90
62573;DHT22;48626;51.678;5.806;2023-04-06T06:22:00;5.80;99.90
62573;DHT22;48626;51.678;5.806;2023-04-06T06:24:28;5.80;99.90
62573;DHT22;48626;51.678;5.806;2023-04-06T06:26:53;5.90;99.90
62573;DHT22;48626;51.678;5.806;2023-04-06T06:29:20;6.00;99.90
62573;DHT22;48626;51.678;5.806;2023-04-06T06:31:45;6.10;99.90
62573;DHT22;48626;51.678;5.806;2023-04-06T06:34:11;6.20;99.90
62573;DHT22;48626;51.678;5.806;2023-04-06T06:36:38;6.30;99.90
62573;DHT22;48626;51.678;5.806;2023-04-06T06:39:04;6.20;99.90
62573;DHT22;48626;51.678;5.806;2023-04-06T06:41:30;6.30;99.90
62573;DHT22;48626;51.678;5.806;2023-04-06T06:43:55;6.30;99.90
62573;DHT22;48626;51.678;5.806;2023-04-06T06:46:21;6.30;99.90
62573;DHT22;48626;51.678;5.806;2023-04-06T06:48:47;6.30;99.90
62573;DHT22;48626;51.678;5.806;2023-04-06T06:51:12;6.30;99.90
62573;DHT22;48626;51.678;5.806;2023-04-06T06:53:38;6.40;99.90
62573;DHT22;48626;51.678;5.806;2023-04-06T06:56:04;6.40;99.90
62573;DHT22;48626;51.678;5.806;2023-04-06T06:58:30;6.50;99.90
62573;DHT22;48626;51.678;5.806;2023-04-06T07:00:57;6.50;99.90
62573;DHT22;48626;51.678;5.806;2023-04-06T07:03:23;6.60;99.90
62573;DHT22;48626;51.678;5.806;2023-04-06T07:05:49;6.70;99.90
62573;DHT22;48626;51.678;5.806;2023-04-06T07:08:23;6.70;99.90
62573;DHT22;48626;51.678;5.806;2023-04-06T07:10:51;6.70;99.90
62573;DHT22;48626;51.678;5.806;2023-04-06T07:13:18;6.80;99.90
62573;DHT22;48626;51.678;5.806;2023-04-06T07:15:49;6.80;99.90
62573;DHT22;48626;51.678;5.806;2023-04-06T07:18:15;6.90;99.90
62573;DHT22;48626;51.678;5.806;2023-04-06T07:20:41;6.90;99.90
62573;DHT22;48626;51.678;5.806;2023-04-06T07:23:07;7.10;99.90
62573;DHT22;48626;51.678;5.806;2023-04-06T07:25:33;7.20;99.90
62573;DHT22;48626;51.678;5.806;2023-04-06T07:27:58;7.30;99.90
62573;DHT22;48626;51.678;5.806;2023-04-06T07:30:25;7.30;99.90
62573;DHT22;48626;51.678;5.806;2023-04-06T07:32:53;7.40;99.90
62573;DHT22;48626;51.678;5.806;2023-04-06T07:35:21;7.40;99.90
62573;DHT22;48626;51.678;5.806;2023-04-06T07:37:47;7.50;99.90
62573;DHT22;48626;51.678;5.806;2023-04-06T07:40:12;7.60;99.90
62573;DHT22;48626;51.678;5.806;2023-04-06T07:42:38;7.60;99.90
62573;DHT22;48626;51.678;5.806;2023-04-06T07:45:04;7.70;99.90
62573;DHT22;48626;51.678;5.806;2023-04-06T07:47:30;7.80;99.90
62573;DHT22;48626;51.678;5.806;2023-04-06T07:49:55;7.80;99.90
62573;DHT22;48626;51.678;5.806;2023-04-06T07:52:21;7.90;99.90
62573;DHT22;48626;51.678;5.806;2023-04-06T07:54:47;7.90;99.90
62573;DHT22;48626;51.678;5.806;2023-04-06T07:57:14;7.90;99.90
62573;DHT22;48626;51.678;5.806;2023-04-06T07:59:40;8.00;99.90
62573;DHT22;48626;51.678;5.806;2023-04-06T08:02:06;8.00;99.90
62573;DHT22;48626;51.678;5.806;2023-04-06T08:04:32;8.10;99.90
62573;DHT22;48626;51.678;5.806;2023-04-06T08:06:57;8.10;99.90
62573;DHT22;48626;51.678;5.806;2023-04-06T08:09:23;8.20;99.90
62573;DHT22;48626;51.678;5.806;2023-04-06T08:11:49;8.30;99.90
62573;DHT22;48626;51.678;5.806;2023-04-06T08:14:15;8.40;99.90
62573;DHT22;48626;51.678;5.806;2023-04-06T08:16:42;8.50;99.90
62573;DHT22;48626;51.678;5.806;2023-04-06T08:19:07;8.60;99.90
62573;DHT22;48626;51.678;5.806;2023-04-06T08:21:35;8.80;99.90
62573;DHT22;48626;51.678;5.806;2023-04-06T08:24:01;8.90;99.90
62573;DHT22;48626;51.678;5.806;2023-04-06T08:26:28;9.00;99.90
62573;DHT22;48626;51.678;5.806;2023-04-06T08:28:53;9.10;99.90
62573;DHT22;48626;51.678;5.806;2023-04-06T08:31:19;9.10;99.90
62573;DHT22;48626;51.678;5.806;2023-04-06T08:33:45;9.20;99.90
62573;DHT22;48626;51.678;5.806;2023-04-06T08:36:13;9.40;99.90
62573;DHT22;48626;51.678;5.806;2023-04-06T08:38:39;9.30;99.90
62573;DHT22;48626;51.678;5.806;2023-04-06T08:41:13;9.50;99.90
62573;DHT22;48626;51.678;5.806;2023-04-06T08:43:53;9.60;99.90
62573;DHT22;48626;51.678;5.806;2023-04-06T08:46:22;9.70;99.90
62573;DHT22;48626;51.678;5.806;2023-04-06T08:48:55;9.90;99.90
62573;DHT22;48626;51.678;5.806;2023-04-06T08:51:23;10.00;99.90
62573;DHT22;48626;51.678;5.806;2023-04-06T08:53:49;9.90;99.90
62573;DHT22;48626;51.678;5.806;2023-04-06T08:56:15;9.90;99.90
62573;DHT22;48626;51.678;5.806;2023-04-06T08:58:41;10.00;99.90
62573;DHT22;48626;51.678;5.806;2023-04-06T09:01:11;10.10;99.90
62573;DHT22;48626;51.678;5.806;2023-04-06T09:03:39;10.20;99.90
62573;DHT22;48626;51.678;5.806;2023-04-06T09:06:06;10.20;99.90
62573;DHT22;48626;51.678;5.806;2023-04-06T09:08:37;10.30;99.90
62573;DHT22;48626;51.678;5.806;2023-04-06T09:11:05;10.50;99.90
62573;DHT22;48626;51.678;5.806;2023-04-06T09:13:31;10.50;99.90
62573;DHT22;48626;51.678;5.806;2023-04-06T09:16:02;10.60;99.90
62573;DHT22;48626;51.678;5.806;2023-04-06T09:18:32;10.80;99.90
62573;DHT22;48626;51.678;5.806;2023-04-06T09:21:03;10.80;99.90
62573;DHT22;48626;51.678;5.806;2023-04-06T09:23:29;10.90;99.90
62573;DHT22;48626;51.678;5.806;2023-04-06T09:26:12;11.00;99.90
62573;DHT22;48626;51.678;5.806;2023-04-06T09:29:07;11.10;99.90
62573;DHT22;48626;51.678;5.806;2023-04-06T09:31:33;11.20;99.90
62573;DHT22;48626;51.678;5.806;2023-04-06T09:33:59;11.20;99.90
62573;DHT22;48626;51.678;5.806;2023-04-06T09:36:32;11.20;99.90
62573;DHT22;48626;51.678;5.806;2023-04-06T09:39:03;11.20;99.90
62573;DHT22;48626;51.678;5.806;2023-04-06T09:41:31;11.10;99.90
62573;DHT22;48626;51.678;5.806;2023-04-06T09:44:03;11.00;99.90
62573;DHT22;48626;51.678;5.806;2023-04-06T09:46:32;11.20;99.90
62573;DHT22;48626;51.678;5.806;2023-04-06T09:49:03;11.20;99.90
62573;DHT22;48626;51.678;5.806;2023-04-06T09:51:31;11.40;99.90
62573;DHT22;48626;51.678;5.806;2023-04-06T09:54:01;11.60;99.90
62573;DHT22;48626;51.678;5.806;2023-04-06T09:59:31;11.80;99.90
62573;DHT22;48626;51.678;5.806;2023-04-06T10:02:05;11.80;99.90
62573;DHT22;48626;51.678;5.806;2023-04-06T10:07:01;11.90;99.90
62573;DHT22;48626;51.678;5.806;2023-04-06T10:09:28;12.00;99.90
62573;DHT22;48626;51.678;5.806;2023-04-06T10:12:05;12.10;99.90
62573;DHT22;48626;51.678;5.806;2023-04-06T10:14:34;12.20;99.90
62573;DHT22;48626;51.678;5.806;2023-04-06T10:17:04;12.30;99.90
62573;DHT22;48626;51.678;5.806;2023-04-06T10:19:52;12.50;99.90
62573;DHT22;48626;51.678;5.806;2023-04-06T10:22:26;12.60;99.90
62573;DHT22;48626;51.678;5.806;2023-04-06T10:24:55;12.80;99.90
62573;DHT22;48626;51.678;5.806;2023-04-06T10:27:30;12.90;99.90
62573;DHT22;48626;51.678;5.806;2023-04-06T10:30:02;13.00;99.90
62573;DHT22;48626;51.678;5.806;2023-04-06T10:32:33;13.00;99.90
62573;DHT22;48626;51.678;5.806;2023-04-06T10:35:05;13.10;99.90
62573;DHT22;48626;51.678;5.806;2023-04-06T10:40:23;13.10;99.90
62573;DHT22;48626;51.678;5.806;2023-04-06T10:42:51;13.10;99.90
62573;DHT22;48626;51.678;5.806;2023-04-06T10:45:25;13.10;99.90
62573;DHT22;48626;51.678;5.806;2023-04-06T10:47:54;13.10;99.90
62573;DHT22;48626;51.678;5.806;2023-04-06T10:50:22;13.10;99.90
62573;DHT22;48626;51.678;5.806;2023-04-06T10:52:59;13.20;99.90
62573;DHT22;48626;51.678;5.806;2023-04-06T10:55:27;13.30;99.90
62573;DHT22;48626;51.678;5.806;2023-04-06T10:57:53;13.40;99.90
62573;DHT22;48626;51.678;5.806;2023-04-06T11:00:19;13.30;99.90
62573;DHT22;48626;51.678;5.806;2023-04-06T11:02:46;13.30;99.90
62573;DHT22;48626;51.678;5.806;2023-04-06T11:05:12;13.20;99.90
62573;DHT22;48626;51.678;5.806;2023-04-06T11:07:39;13.20;99.90
62573;DHT22;48626;51.678;5.806;2023-04-06T11:10:06;13.30;99.90
62573;DHT22;48626;51.678;5.806;2023-04-06T11:12:32;13.20;99.90
62573;DHT22;48626;51.678;5.806;2023-04-06T11:15:00;13.10;99.90
62573;DHT22;48626;51.678;5.806;2023-04-06T11:17:36;13.20;99.90
62573;DHT22;48626;51.678;5.806;2023-04-06T11:20:03;13.10;99.90
62573;DHT22;48626;51.678;5.806;2023-04-06T11:22:31;13.10;99.90
62573;DHT22;48626;51.678;5.806;2023-04-06T11:25:10;12.90;99.90
62573;DHT22;48626;51.678;5.806;2023-04-06T11:27:36;12.80;99.90
62573;DHT22;48626;51.678;5.806;2023-04-06T11:30:02;12.80;99.90
62573;DHT22;48626;51.678;5.806;2023-04-06T11:32:28;12.70;99.90
62573;DHT22;48626;51.678;5.806;2023-04-06T11:34:54;12.70;99.90
62573;DHT22;48626;51.678;5.806;2023-04-06T11:37:19;12.60;99.90
62573;DHT22;48626;51.678;5.806;2023-04-06T11:39:49;12.40;99.90
62573;DHT22;48626;51.678;5.806;2023-04-06T11:42:27;12.30;99.90
62573;DHT22;48626;51.678;5.806;2023-04-06T11:44:57;12.40;99.90
62573;DHT22;48626;51.678;5.806;2023-04-06T11:47:30;12.40;99.90
62573;DHT22;48626;51.678;5.806;2023-04-06T11:50:06;12.30;99.90
62573;DHT22;48626;51.678;5.806;2023-04-06T11:52:33;12.30;99.90
62573;DHT22;48626;51.678;5.806;2023-04-06T11:55:10;12.20;99.90
62573;DHT22;48626;51.678;5.806;2023-04-06T11:57:36;12.10;99.90
62573;DHT22;48626;51.678;5.806;2023-04-06T12:00:02;12.00;99.90
62573;DHT22;48626;51.678;5.806;2023-04-06T12:02:28;12.00;99.90
62573;DHT22;48626;51.678;5.806;2023-04-06T12:04:54;11.90;99.90
62573;DHT22;48626;51.678;5.806;2023-04-06T12:07:20;11.70;99.90
62573;DHT22;48626;51.678;5.806;2023-04-06T12:09:46;11.60;99.90
62573;DHT22;48626;51.678;5.806;2023-04-06T12:12:11;11.40;99.90
62573;DHT22;48626;51.678;5.806;2023-04-06T12:14:37;11.30;99.90
62573;DHT22;48626;51.678;5.806;2023-04-06T12:17:03;11.20;99.90
62573;DHT22;48626;51.678;5.806;2023-04-06T12:19:28;11.20;99.90
62573;DHT22;48626;51.678;5.806;2023-04-06T12:21:54;11.10;99.90
62573;DHT22;48626;51.678;5.806;2023-04-06T12:24:20;10.90;99.90
62573;DHT22;48626;51.678;5.806;2023-04-06T12:26:46;10.90;99.90
62573;DHT22;48626;51.678;5.806;2023-04-06T12:29:12;10.80;99.90
62573;DHT22;48626;51.678;5.806;2023-04-06T12:31:39;10.80;99.90
62573;DHT22;48626;51.678;5.806;2023-04-06T12:34:07;10.80;99.90
62573;DHT22;48626;51.678;5.806;2023-04-06T12:36:39;10.80;99.90
62573;DHT22;48626;51.678;5.806;2023-04-06T12:39:05;10.80;99.90
62573;DHT22;48626;51.678;5.806;2023-04-06T12:41:31;10.70;99.90
62573;DHT22;48626;51.678;5.806;2023-04-06T12:43:58;10.70;99.90
62573;DHT22;48626;51.678;5.806;2023-04-06T12:46:24;10.80;99.90
62573;DHT22;48626;51.678;5.806;2023-04-06T12:48:51;10.70;99.90
62573;DHT22;48626;51.678;5.806;2023-04-06T12:51:21;10.70;99.90
62573;DHT22;48626;51.678;5.806;2023-04-06T12:53:47;10.60;99.90
62573;DHT22;48626;51.678;5.806;2023-04-06T12:56:15;10.70;99.90
62573;DHT22;48626;51.678;5.806;2023-04-06T12:58:43;10.70;99.90
62573;DHT22;48626;51.678;5.806;2023-04-06T13:01:10;10.70;99.90
62573;DHT22;48626;51.678;5.806;2023-04-06T13:03:38;10.60;99.90
62573;DHT22;48626;51.678;5.806;2023-04-06T13:06:04;10.60;99.90
62573;DHT22;48626;51.678;5.806;2023-04-06T13:08:30;10.50;99.90
62573;DHT22;48626;51.678;5.806;2023-04-06T13:10:56;10.40;99.90
62573;DHT22;48626;51.678;5.806;2023-04-06T13:13:26;10.40;99.90
62573;DHT22;48626;51.678;5.806;2023-04-06T13:15:52;10.40;99.90
62573;DHT22;48626;51.678;5.806;2023-04-06T13:18:18;10.40;99.90
62573;DHT22;48626;51.678;5.806;2023-04-06T13:20:46;10.30;99.90
62573;DHT22;48626;51.678;5.806;2023-04-06T13:23:13;10.30;99.90
62573;DHT22;48626;51.678;5.806;2023-04-06T13:25:38;10.20;99.90
62573;DHT22;48626;51.678;5.806;2023-04-06T13:28:04;10.20;99.90
62573;DHT22;48626;51.678;5.806;2023-04-06T13:30:30;10.20;99.90
62573;DHT22;48626;51.678;5.806;2023-04-06T13:32:56;10.20;99.90
62573;DHT22;48626;51.678;5.806;2023-04-06T13:35:21;10.20;99.90
62573;DHT22;48626;51.678;5.806;2023-04-06T13:37:47;10.20;99.90
62573;DHT22;48626;51.678;5.806;2023-04-06T13:40:14;10.20;99.90
62573;DHT22;48626;51.678;5.806;2023-04-06T13:42:39;10.20;99.90
62573;DHT22;48626;51.678;5.806;2023-04-06T13:45:07;10.20;99.90
62573;DHT22;48626;51.678;5.806;2023-04-06T13:47:33;10.20;99.90
62573;DHT22;48626;51.678;5.806;2023-04-06T13:49:58;10.30;99.90
62573;DHT22;48626;51.678;5.806;2023-04-06T13:52:24;10.40;99.90
62573;DHT22;48626;51.678;5.806;2023-04-06T13:54:50;10.40;99.90
62573;DHT22;48626;51.678;5.806;2023-04-06T13:57:16;10.50;99.90
62573;DHT22;48626;51.678;5.806;2023-04-06T13:59:42;10.60;99.90
62573;DHT22;48626;51.678;5.806;2023-04-06T14:02:09;10.50;99.90
62573;DHT22;48626;51.678;5.806;2023-04-06T14:04:36;10.40;99.90
62573;DHT22;48626;51.678;5.806;2023-04-06T14:07:03;10.20;99.90
62573;DHT22;48626;51.678;5.806;2023-04-06T14:09:29;10.20;99.90
62573;DHT22;48626;51.678;5.806;2023-04-06T14:11:56;10.00;99.90
62573;DHT22;48626;51.678;5.806;2023-04-06T14:14:22;9.90;99.90
62573;DHT22;48626;51.678;5.806;2023-04-06T14:16:48;9.80;99.90
62573;DHT22;48626;51.678;5.806;2023-04-06T14:19:16;9.80;99.90
62573;DHT22;48626;51.678;5.806;2023-04-06T14:21:44;9.70;99.90
62573;DHT22;48626;51.678;5.806;2023-04-06T14:24:15;9.70;99.90
62573;DHT22;48626;51.678;5.806;2023-04-06T14:26:41;9.60;99.90
62573;DHT22;48626;51.678;5.806;2023-04-06T14:29:09;9.50;99.90
62573;DHT22;48626;51.678;5.806;2023-04-06T14:31:35;9.40;99.90
62573;DHT22;48626;51.678;5.806;2023-04-06T14:34:02;9.40;99.90
62573;DHT22;48626;51.678;5.806;2023-04-06T14:36:31;9.40;99.90
62573;DHT22;48626;51.678;5.806;2023-04-06T14:39:03;9.30;99.90
62573;DHT22;48626;51.678;5.806;2023-04-06T14:41:30;9.30;99.90
62573;DHT22;48626;51.678;5.806;2023-04-06T14:43:56;9.30;99.90
62573;DHT22;48626;51.678;5.806;2023-04-06T14:46:22;9.30;99.90
62573;DHT22;48626;51.678;5.806;2023-04-06T14:48:48;9.30;99.90
62573;DHT22;48626;51.678;5.806;2023-04-06T14:51:13;9.40;99.90
62573;DHT22;48626;51.678;5.806;2023-04-06T14:53:39;9.40;99.90
62573;DHT22;48626;51.678;5.806;2023-04-06T14:56:05;9.40;99.90
62573;DHT22;48626;51.678;5.806;2023-04-06T14:58:31;9.40;99.90
62573;DHT22;48626;51.678;5.806;2023-04-06T15:01:00;9.40;99.90
62573;DHT22;48626;51.678;5.806;2023-04-06T15:03:27;9.40;99.90
62573;DHT22;48626;51.678;5.806;2023-04-06T15:05:54;9.40;99.90
62573;DHT22;48626;51.678;5.806;2023-04-06T15:08:21;9.30;99.90
62573;DHT22;48626;51.678;5.806;2023-04-06T15:10:49;9.30;99.90
62573;DHT22;48626;51.678;5.806;2023-04-06T15:13:15;9.30;99.90
62573;DHT22;48626;51.678;5.806;2023-04-06T15:15:41;9.30;99.90
62573;DHT22;48626;51.678;5.806;2023-04-06T15:18:08;9.30;99.90
62573;DHT22;48626;51.678;5.806;2023-04-06T15:20:34;9.20;99.90
62573;DHT22;48626;51.678;5.806;2023-04-06T15:23:01;9.20;99.90
62573;DHT22;48626;51.678;5.806;2023-04-06T15:25:27;9.20;99.90
62573;DHT22;48626;51.678;5.806;2023-04-06T15:27:57;9.20;99.90
62573;DHT22;48626;51.678;5.806;2023-04-06T15:30:22;9.20;99.90
62573;DHT22;48626;51.678;5.806;2023-04-06T15:33:07;9.20;99.90
62573;DHT22;48626;51.678;5.806;2023-04-06T15:35:34;9.20;99.90
62573;DHT22;48626;51.678;5.806;2023-04-06T15:38:04;9.10;99.90
62573;DHT22;48626;51.678;5.806;2023-04-06T15:40:30;9.10;99.90
62573;DHT22;48626;51.678;5.806;2023-04-06T15:42:55;9.10;99.90
62573;DHT22;48626;51.678;5.806;2023-04-06T15:45:21;9.20;99.90
62573;DHT22;48626;51.678;5.806;2023-04-06T15:47:46;9.10;99.90